CheckWX is a tool to help pilots better visualize weather data.  It is not intended as a substitute for an official pre-flight weather briefing.

10:07:33 UTC

EKVG METAR
Vagar Airport
Vagar, Denmark
Current

18 mins ago

EKVG 200950Z AUTO 11028KT 3000NDV RA OVC008/// 06/06 Q0990 RMK BKN005/// WIND SKEID 12045KT
Observed
Feb-20 @ 09:50 UTC
Wind
  • 110° at 28 KTS
Visibility
Conditions
Rain
Cloud Levels
  • Overcast at 800' AGL
Temperature
C / 43°F
Dewpoint
C / 43°F
Humidity
100%
Altimeter
29.23" Hg
Pressure
989.92 hPa
Previous

48 mins ago

EKVG 200920Z AUTO 11029KT 5000NDV -RA OVC009/// 06/06 Q0991 RMK OVC007/// WIND SKEID 12050KT
Observed
Feb-20 @ 09:20 UTC
Wind
  • 110° at 29 KTS
Visibility
Conditions
Light Rain
Cloud Levels
  • Overcast at 900' AGL
Temperature
C / 43°F
Dewpoint
C / 43°F
Humidity
100%
Altimeter
29.26" Hg
Pressure
990.92 hPa
Previous

1 hour ago

EKVG 200850Z AUTO 11030KT 5000NDV -RA OVC009/// 06/05 Q0992
Observed
Feb-20 @ 08:50 UTC
Wind
  • 110° at 30 KTS
Visibility
Conditions
Light Rain
Cloud Levels
  • Overcast at 900' AGL
Temperature
C / 43°F
Dewpoint
C / 41°F
Humidity
93%
Altimeter
29.29" Hg
Pressure
991.92 hPa